sensor_id;sensor_type;location;lat;lon;timestamp;P1;durP1;ratioP1;P2;durP2;ratioP2
25854;SDS011;13680;49.936;11.344;2023-04-06T00:01:17;8.50;;;4.28;;
25854;SDS011;13680;49.936;11.344;2023-04-06T00:03:42;9.55;;;4.30;;
25854;SDS011;13680;49.936;11.344;2023-04-06T00:06:07;9.45;;;4.90;;
25854;SDS011;13680;49.936;11.344;2023-04-06T00:08:32;8.00;;;4.47;;
25854;SDS011;13680;49.936;11.344;2023-04-06T00:10:58;8.38;;;4.30;;
25854;SDS011;13680;49.936;11.344;2023-04-06T00:13:23;8.60;;;3.88;;
25854;SDS011;13680;49.936;11.344;2023-04-06T00:15:49;7.85;;;4.10;;
25854;SDS011;13680;49.936;11.344;2023-04-06T00:18:14;5.68;;;4.53;;
25854;SDS011;13680;49.936;11.344;2023-04-06T00:20:39;7.95;;;4.63;;
25854;SDS011;13680;49.936;11.344;2023-04-06T00:23:05;13.50;;;4.90;;
25854;SDS011;13680;49.936;11.344;2023-04-06T00:25:31;10.77;;;4.45;;
25854;SDS011;13680;49.936;11.344;2023-04-06T00:27:56;7.82;;;4.47;;
25854;SDS011;13680;49.936;11.344;2023-04-06T00:30:21;7.88;;;4.68;;
25854;SDS011;13680;49.936;11.344;2023-04-06T00:32:47;6.93;;;4.90;;
25854;SDS011;13680;49.936;11.344;2023-04-06T00:35:12;10.23;;;5.05;;
25854;SDS011;13680;49.936;11.344;2023-04-06T00:37:38;10.85;;;5.35;;
25854;SDS011;13680;49.936;11.344;2023-04-06T00:40:03;7.50;;;5.55;;
25854;SDS011;13680;49.936;11.344;2023-04-06T00:42:29;8.07;;;4.93;;
25854;SDS011;13680;49.936;11.344;2023-04-06T00:44:55;9.10;;;5.13;;
25854;SDS011;13680;49.936;11.344;2023-04-06T00:47:22;8.32;;;4.65;;
25854;SDS011;13680;49.936;11.344;2023-04-06T00:49:50;20.67;;;6.88;;
25854;SDS011;13680;49.936;11.344;2023-04-06T00:52:15;8.45;;;4.85;;
25854;SDS011;13680;49.936;11.344;2023-04-06T00:54:41;9.95;;;4.95;;
25854;SDS011;13680;49.936;11.344;2023-04-06T00:57:06;11.15;;;5.18;;
25854;SDS011;13680;49.936;11.344;2023-04-06T00:59:32;9.18;;;5.75;;
25854;SDS011;13680;49.936;11.344;2023-04-06T01:01:57;8.38;;;4.70;;
25854;SDS011;13680;49.936;11.344;2023-04-06T01:04:23;10.82;;;5.28;;
25854;SDS011;13680;49.936;11.344;2023-04-06T01:06:49;6.70;;;4.50;;
25854;SDS011;13680;49.936;11.344;2023-04-06T01:09:15;9.40;;;5.43;;
25854;SDS011;13680;49.936;11.344;2023-04-06T01:11:40;9.52;;;4.95;;
25854;SDS011;13680;49.936;11.344;2023-04-06T01:14:06;9.63;;;5.15;;
25854;SDS011;13680;49.936;11.344;2023-04-06T01:16:31;7.60;;;4.50;;
25854;SDS011;13680;49.936;11.344;2023-04-06T01:18:57;7.75;;;4.68;;
25854;SDS011;13680;49.936;11.344;2023-04-06T01:21:23;9.45;;;5.05;;
25854;SDS011;13680;49.936;11.344;2023-04-06T01:23:48;8.95;;;4.90;;
25854;SDS011;13680;49.936;11.344;2023-04-06T01:26:13;10.23;;;4.90;;
25854;SDS011;13680;49.936;11.344;2023-04-06T01:28:39;10.88;;;4.80;;
25854;SDS011;13680;49.936;11.344;2023-04-06T01:31:06;11.75;;;5.50;;
25854;SDS011;13680;49.936;11.344;2023-04-06T01:33:32;9.88;;;4.85;;
25854;SDS011;13680;49.936;11.344;2023-04-06T01:35:58;7.40;;;4.50;;
25854;SDS011;13680;49.936;11.344;2023-04-06T01:38:23;7.22;;;4.60;;
25854;SDS011;13680;49.936;11.344;2023-04-06T01:40:49;8.60;;;4.65;;
25854;SDS011;13680;49.936;11.344;2023-04-06T01:43:14;7.07;;;4.53;;
25854;SDS011;13680;49.936;11.344;2023-04-06T01:45:40;9.65;;;4.75;;
25854;SDS011;13680;49.936;11.344;2023-04-06T01:48:06;8.45;;;4.82;;
25854;SDS011;13680;49.936;11.344;2023-04-06T01:50:32;8.80;;;5.00;;
25854;SDS011;13680;49.936;11.344;2023-04-06T01:52:57;9.65;;;4.78;;
25854;SDS011;13680;49.936;11.344;2023-04-06T01:55:23;8.30;;;4.90;;
25854;SDS011;13680;49.936;11.344;2023-04-06T01:57:48;8.02;;;5.18;;
25854;SDS011;13680;49.936;11.344;2023-04-06T02:00:14;9.95;;;4.88;;
25854;SDS011;13680;49.936;11.344;2023-04-06T02:02:40;9.88;;;4.72;;
25854;SDS011;13680;49.936;11.344;2023-04-06T02:05:06;10.88;;;4.95;;
25854;SDS011;13680;49.936;11.344;2023-04-06T02:07:32;7.43;;;4.72;;
25854;SDS011;13680;49.936;11.344;2023-04-06T02:09:57;8.32;;;5.32;;
25854;SDS011;13680;49.936;11.344;2023-04-06T02:12:23;9.77;;;4.90;;
25854;SDS011;13680;49.936;11.344;2023-04-06T02:14:48;10.68;;;5.43;;
25854;SDS011;13680;49.936;11.344;2023-04-06T02:17:14;11.10;;;4.88;;
25854;SDS011;13680;49.936;11.344;2023-04-06T02:19:39;7.00;;;4.55;;
25854;SDS011;13680;49.936;11.344;2023-04-06T02:22:05;9.15;;;5.20;;
25854;SDS011;13680;49.936;11.344;2023-04-06T02:24:31;8.35;;;5.07;;
25854;SDS011;13680;49.936;11.344;2023-04-06T02:26:56;12.30;;;5.38;;
25854;SDS011;13680;49.936;11.344;2023-04-06T02:29:21;8.07;;;4.60;;
25854;SDS011;13680;49.936;11.344;2023-04-06T02:31:47;8.77;;;5.00;;
25854;SDS011;13680;49.936;11.344;2023-04-06T02:34:12;9.05;;;5.45;;
25854;SDS011;13680;49.936;11.344;2023-04-06T02:36:45;6.70;;;4.97;;
25854;SDS011;13680;49.936;11.344;2023-04-06T02:39:11;9.27;;;5.20;;
25854;SDS011;13680;49.936;11.344;2023-04-06T02:41:37;8.63;;;4.95;;
25854;SDS011;13680;49.936;11.344;2023-04-06T02:44:03;10.02;;;4.90;;
25854;SDS011;13680;49.936;11.344;2023-04-06T02:46:28;8.30;;;4.80;;
25854;SDS011;13680;49.936;11.344;2023-04-06T02:48:53;10.98;;;5.30;;
25854;SDS011;13680;49.936;11.344;2023-04-06T02:51:19;12.48;;;5.47;;
25854;SDS011;13680;49.936;11.344;2023-04-06T02:53:45;10.68;;;5.70;;
25854;SDS011;13680;49.936;11.344;2023-04-06T02:56:10;9.93;;;5.82;;
25854;SDS011;13680;49.936;11.344;2023-04-06T02:58:36;10.32;;;5.30;;
25854;SDS011;13680;49.936;11.344;2023-04-06T03:01:01;13.43;;;5.38;;
25854;SDS011;13680;49.936;11.344;2023-04-06T03:03:27;10.25;;;5.10;;
25854;SDS011;13680;49.936;11.344;2023-04-06T03:05:52;9.70;;;5.22;;
25854;SDS011;13680;49.936;11.344;2023-04-06T03:08:19;11.05;;;5.55;;
25854;SDS011;13680;49.936;11.344;2023-04-06T03:10:45;13.55;;;5.82;;
25854;SDS011;13680;49.936;11.344;2023-04-06T03:13:10;9.57;;;4.78;;
25854;SDS011;13680;49.936;11.344;2023-04-06T03:15:36;8.60;;;4.80;;
25854;SDS011;13680;49.936;11.344;2023-04-06T03:18:01;10.18;;;5.30;;
25854;SDS011;13680;49.936;11.344;2023-04-06T03:20:26;9.00;;;5.10;;
25854;SDS011;13680;49.936;11.344;2023-04-06T03:22:52;9.27;;;5.50;;
25854;SDS011;13680;49.936;11.344;2023-04-06T03:25:17;11.02;;;5.57;;
25854;SDS011;13680;49.936;11.344;2023-04-06T03:27:42;9.10;;;4.93;;
25854;SDS011;13680;49.936;11.344;2023-04-06T03:30:08;10.30;;;5.50;;
25854;SDS011;13680;49.936;11.344;2023-04-06T03:32:33;11.20;;;4.88;;
25854;SDS011;13680;49.936;11.344;2023-04-06T03:34:59;10.45;;;4.78;;
25854;SDS011;13680;49.936;11.344;2023-04-06T03:37:24;7.63;;;5.30;;
25854;SDS011;13680;49.936;11.344;2023-04-06T03:39:50;8.07;;;4.80;;
25854;SDS011;13680;49.936;11.344;2023-04-06T03:42:16;7.65;;;4.93;;
25854;SDS011;13680;49.936;11.344;2023-04-06T03:44:42;11.23;;;5.60;;
25854;SDS011;13680;49.936;11.344;2023-04-06T03:47:07;12.35;;;4.90;;
25854;SDS011;13680;49.936;11.344;2023-04-06T03:49:32;10.07;;;5.47;;
25854;SDS011;13680;49.936;11.344;2023-04-06T03:51:58;6.30;;;4.65;;
25854;SDS011;13680;49.936;11.344;2023-04-06T03:54:23;10.63;;;5.57;;
25854;SDS011;13680;49.936;11.344;2023-04-06T03:56:48;7.35;;;4.90;;
25854;SDS011;13680;49.936;11.344;2023-04-06T03:59:14;9.00;;;4.90;;
25854;SDS011;13680;49.936;11.344;2023-04-06T04:01:40;11.20;;;5.45;;
25854;SDS011;13680;49.936;11.344;2023-04-06T04:04:05;9.20;;;5.13;;
25854;SDS011;13680;49.936;11.344;2023-04-06T04:06:30;7.47;;;5.10;;
25854;SDS011;13680;49.936;11.344;2023-04-06T04:08:56;8.98;;;5.20;;
25854;SDS011;13680;49.936;11.344;2023-04-06T04:11:21;9.27;;;5.18;;
25854;SDS011;13680;49.936;11.344;2023-04-06T04:13:47;10.18;;;4.88;;
25854;SDS011;13680;49.936;11.344;2023-04-06T04:16:12;10.60;;;5.10;;
25854;SDS011;13680;49.936;11.344;2023-04-06T04:18:37;10.38;;;5.15;;
25854;SDS011;13680;49.936;11.344;2023-04-06T04:21:03;9.80;;;5.15;;
25854;SDS011;13680;49.936;11.344;2023-04-06T04:23:28;8.07;;;5.35;;
25854;SDS011;13680;49.936;11.344;2023-04-06T04:25:53;12.05;;;5.45;;
25854;SDS011;13680;49.936;11.344;2023-04-06T04:28:19;9.85;;;5.72;;
25854;SDS011;13680;49.936;11.344;2023-04-06T04:30:44;10.98;;;5.13;;
25854;SDS011;13680;49.936;11.344;2023-04-06T04:33:10;10.25;;;4.93;;
25854;SDS011;13680;49.936;11.344;2023-04-06T04:35:36;9.50;;;5.40;;
25854;SDS011;13680;49.936;11.344;2023-04-06T04:38:01;11.73;;;5.03;;
25854;SDS011;13680;49.936;11.344;2023-04-06T04:40:26;18.23;;;5.72;;
25854;SDS011;13680;49.936;11.344;2023-04-06T04:42:51;8.68;;;5.90;;
25854;SDS011;13680;49.936;11.344;2023-04-06T04:45:17;9.90;;;5.90;;
25854;SDS011;13680;49.936;11.344;2023-04-06T04:47:42;11.10;;;5.47;;
25854;SDS011;13680;49.936;11.344;2023-04-06T04:50:07;10.82;;;5.50;;
25854;SDS011;13680;49.936;11.344;2023-04-06T04:52:33;12.25;;;5.65;;
25854;SDS011;13680;49.936;11.344;2023-04-06T04:54:59;13.25;;;6.00;;
25854;SDS011;13680;49.936;11.344;2023-04-06T04:57:24;13.55;;;5.90;;
25854;SDS011;13680;49.936;11.344;2023-04-06T04:59:49;9.52;;;5.43;;
25854;SDS011;13680;49.936;11.344;2023-04-06T05:02:16;11.38;;;5.70;;
25854;SDS011;13680;49.936;11.344;2023-04-06T05:04:41;9.30;;;5.43;;
25854;SDS011;13680;49.936;11.344;2023-04-06T05:07:07;10.50;;;5.90;;
25854;SDS011;13680;49.936;11.344;2023-04-06T05:09:33;14.73;;;6.00;;
25854;SDS011;13680;49.936;11.344;2023-04-06T05:11:59;11.70;;;5.60;;
25854;SDS011;13680;49.936;11.344;2023-04-06T05:14:25;8.82;;;5.18;;
25854;SDS011;13680;49.936;11.344;2023-04-06T05:16:51;7.32;;;5.25;;
25854;SDS011;13680;49.936;11.344;2023-04-06T05:19:16;9.27;;;4.95;;
25854;SDS011;13680;49.936;11.344;2023-04-06T05:21:42;9.98;;;5.25;;
25854;SDS011;13680;49.936;11.344;2023-04-06T05:24:07;8.57;;;4.75;;
25854;SDS011;13680;49.936;11.344;2023-04-06T05:26:33;7.38;;;4.82;;
25854;SDS011;13680;49.936;11.344;2023-04-06T05:28:59;8.73;;;5.07;;
25854;SDS011;13680;49.936;11.344;2023-04-06T05:31:25;9.52;;;4.95;;
25854;SDS011;13680;49.936;11.344;2023-04-06T05:33:51;15.27;;;4.90;;
25854;SDS011;13680;49.936;11.344;2023-04-06T05:36:16;7.40;;;5.35;;
25854;SDS011;13680;49.936;11.344;2023-04-06T05:38:41;9.20;;;5.50;;
25854;SDS011;13680;49.936;11.344;2023-04-06T05:41:07;12.75;;;5.82;;
25854;SDS011;13680;49.936;11.344;2023-04-06T05:43:32;9.88;;;5.55;;
25854;SDS011;13680;49.936;11.344;2023-04-06T05:45:57;10.10;;;6.03;;
25854;SDS011;13680;49.936;11.344;2023-04-06T05:48:23;10.38;;;5.95;;
25854;SDS011;13680;49.936;11.344;2023-04-06T05:50:48;13.57;;;6.28;;
25854;SDS011;13680;49.936;11.344;2023-04-06T05:53:18;17.60;;;5.97;;
25854;SDS011;13680;49.936;11.344;2023-04-06T05:55:43;14.93;;;5.63;;
25854;SDS011;13680;49.936;11.344;2023-04-06T05:58:09;11.50;;;5.80;;
25854;SDS011;13680;49.936;11.344;2023-04-06T06:00:35;8.82;;;4.95;;
25854;SDS011;13680;49.936;11.344;2023-04-06T06:03:00;8.70;;;5.47;;
25854;SDS011;13680;49.936;11.344;2023-04-06T06:05:29;9.98;;;5.28;;
25854;SDS011;13680;49.936;11.344;2023-04-06T06:07:54;9.73;;;5.63;;
25854;SDS011;13680;49.936;11.344;2023-04-06T06:10:20;13.05;;;5.60;;
25854;SDS011;13680;49.936;11.344;2023-04-06T06:12:45;17.25;;;6.18;;
25854;SDS011;13680;49.936;11.344;2023-04-06T06:15:11;13.52;;;7.60;;
25854;SDS011;13680;49.936;11.344;2023-04-06T06:17:36;18.23;;;8.38;;
25854;SDS011;13680;49.936;11.344;2023-04-06T06:20:04;15.65;;;8.05;;
25854;SDS011;13680;49.936;11.344;2023-04-06T06:22:32;26.65;;;9.27;;
25854;SDS011;13680;49.936;11.344;2023-04-06T06:24:58;13.93;;;7.35;;
25854;SDS011;13680;49.936;11.344;2023-04-06T06:27:23;12.75;;;6.53;;
25854;SDS011;13680;49.936;11.344;2023-04-06T06:29:49;12.10;;;6.80;;
25854;SDS011;13680;49.936;11.344;2023-04-06T06:32:14;16.00;;;7.40;;
25854;SDS011;13680;49.936;11.344;2023-04-06T06:34:40;15.45;;;8.02;;
25854;SDS011;13680;49.936;11.344;2023-04-06T06:37:05;20.55;;;8.25;;
25854;SDS011;13680;49.936;11.344;2023-04-06T06:39:31;14.23;;;7.75;;
25854;SDS011;13680;49.936;11.344;2023-04-06T06:41:56;16.13;;;8.00;;
25854;SDS011;13680;49.936;11.344;2023-04-06T06:44:22;17.52;;;8.38;;
25854;SDS011;13680;49.936;11.344;2023-04-06T06:46:47;17.08;;;8.70;;
25854;SDS011;13680;49.936;11.344;2023-04-06T06:49:13;12.45;;;7.53;;
25854;SDS011;13680;49.936;11.344;2023-04-06T06:51:39;18.73;;;8.02;;
25854;SDS011;13680;49.936;11.344;2023-04-06T06:54:05;14.05;;;7.53;;
25854;SDS011;13680;49.936;11.344;2023-04-06T06:56:30;21.20;;;14.82;;
25854;SDS011;13680;49.936;11.344;2023-04-06T06:58:55;17.00;;;10.60;;
25854;SDS011;13680;49.936;11.344;2023-04-06T07:01:21;18.48;;;11.13;;
25854;SDS011;13680;49.936;11.344;2023-04-06T07:03:46;15.35;;;8.65;;
25854;SDS011;13680;49.936;11.344;2023-04-06T07:06:11;16.40;;;8.40;;
25854;SDS011;13680;49.936;11.344;2023-04-06T07:08:37;15.82;;;9.35;;
25854;SDS011;13680;49.936;11.344;2023-04-06T07:11:02;12.85;;;6.53;;
25854;SDS011;13680;49.936;11.344;2023-04-06T07:13:27;11.70;;;6.38;;
25854;SDS011;13680;49.936;11.344;2023-04-06T07:15:53;10.82;;;5.78;;
25854;SDS011;13680;49.936;11.344;2023-04-06T07:18:18;12.02;;;6.07;;
25854;SDS011;13680;49.936;11.344;2023-04-06T07:20:44;13.45;;;5.65;;
25854;SDS011;13680;49.936;11.344;2023-04-06T07:23:10;12.52;;;4.80;;
25854;SDS011;13680;49.936;11.344;2023-04-06T07:25:36;10.52;;;5.07;;
25854;SDS011;13680;49.936;11.344;2023-04-06T07:28:04;12.70;;;5.13;;
25854;SDS011;13680;49.936;11.344;2023-04-06T07:30:30;10.52;;;5.22;;
25854;SDS011;13680;49.936;11.344;2023-04-06T07:32:56;10.32;;;5.25;;
25854;SDS011;13680;49.936;11.344;2023-04-06T07:35:25;17.58;;;4.90;;
25854;SDS011;13680;49.936;11.344;2023-04-06T07:37:51;10.68;;;4.93;;
25854;SDS011;13680;49.936;11.344;2023-04-06T07:40:20;12.27;;;5.22;;
25854;SDS011;13680;49.936;11.344;2023-04-06T07:42:45;9.35;;;5.20;;
25854;SDS011;13680;49.936;11.344;2023-04-06T07:45:11;9.88;;;5.20;;
25854;SDS011;13680;49.936;11.344;2023-04-06T07:47:36;9.48;;;4.88;;
25854;SDS011;13680;49.936;11.344;2023-04-06T07:50:02;9.27;;;5.10;;
25854;SDS011;13680;49.936;11.344;2023-04-06T07:52:27;10.65;;;4.88;;
25854;SDS011;13680;49.936;11.344;2023-04-06T07:54:53;7.28;;;4.57;;
25854;SDS011;13680;49.936;11.344;2023-04-06T07:57:18;9.18;;;5.35;;
25854;SDS011;13680;49.936;11.344;2023-04-06T07:59:43;9.40;;;5.35;;
25854;SDS011;13680;49.936;11.344;2023-04-06T08:02:09;10.88;;;4.97;;
25854;SDS011;13680;49.936;11.344;2023-04-06T08:04:35;14.75;;;5.70;;
25854;SDS011;13680;49.936;11.344;2023-04-06T08:07:00;10.23;;;5.32;;
25854;SDS011;13680;49.936;11.344;2023-04-06T08:09:25;9.68;;;5.28;;
25854;SDS011;13680;49.936;11.344;2023-04-06T08:11:51;10.40;;;6.05;;
25854;SDS011;13680;49.936;11.344;2023-04-06T08:14:17;8.38;;;5.22;;
25854;SDS011;13680;49.936;11.344;2023-04-06T08:16:42;10.40;;;6.10;;
25854;SDS011;13680;49.936;11.344;2023-04-06T08:19:08;10.80;;;6.18;;
25854;SDS011;13680;49.936;11.344;2023-04-06T08:21:37;9.07;;;5.75;;
25854;SDS011;13680;49.936;11.344;2023-04-06T08:24:02;10.45;;;5.22;;
25854;SDS011;13680;49.936;11.344;2023-04-06T08:26:28;10.82;;;5.60;;
25854;SDS011;13680;49.936;11.344;2023-04-06T08:28:54;9.50;;;5.72;;
25854;SDS011;13680;49.936;11.344;2023-04-06T08:31:19;11.85;;;5.80;;
25854;SDS011;13680;49.936;11.344;2023-04-06T08:33:44;10.20;;;5.63;;
25854;SDS011;13680;49.936;11.344;2023-04-06T08:36:13;9.82;;;6.03;;
25854;SDS011;13680;49.936;11.344;2023-04-06T08:38:40;11.07;;;6.03;;
25854;SDS011;13680;49.936;11.344;2023-04-06T08:41:12;10.27;;;6.20;;
25854;SDS011;13680;49.936;11.344;2023-04-06T08:46:36;10.07;;;6.13;;
25854;SDS011;13680;49.936;11.344;2023-04-06T08:49:02;14.35;;;5.53;;
25854;SDS011;13680;49.936;11.344;2023-04-06T08:51:31;10.00;;;5.68;;
25854;SDS011;13680;49.936;11.344;2023-04-06T08:53:57;9.32;;;5.68;;
25854;SDS011;13680;49.936;11.344;2023-04-06T08:56:25;15.27;;;6.15;;
25854;SDS011;13680;49.936;11.344;2023-04-06T08:58:52;11.48;;;6.10;;
25854;SDS011;13680;49.936;11.344;2023-04-06T09:01:20;14.52;;;5.97;;
25854;SDS011;13680;49.936;11.344;2023-04-06T09:03:48;9.32;;;5.45;;
25854;SDS011;13680;49.936;11.344;2023-04-06T09:06:15;10.05;;;6.03;;
25854;SDS011;13680;49.936;11.344;2023-04-06T09:08:41;11.93;;;6.72;;
25854;SDS011;13680;49.936;11.344;2023-04-06T09:11:07;11.15;;;5.80;;
25854;SDS011;13680;49.936;11.344;2023-04-06T09:13:50;10.43;;;6.57;;
25854;SDS011;13680;49.936;11.344;2023-04-06T09:16:16;9.40;;;5.63;;
25854;SDS011;13680;49.936;11.344;2023-04-06T09:18:42;14.38;;;6.30;;
25854;SDS011;13680;49.936;11.344;2023-04-06T09:21:08;12.80;;;6.85;;
25854;SDS011;13680;49.936;11.344;2023-04-06T09:23:34;11.73;;;6.78;;
25854;SDS011;13680;49.936;11.344;2023-04-06T09:28:51;9.70;;;6.05;;
25854;SDS011;13680;49.936;11.344;2023-04-06T09:31:22;11.40;;;6.18;;
25854;SDS011;13680;49.936;11.344;2023-04-06T09:33:52;9.98;;;6.20;;
25854;SDS011;13680;49.936;11.344;2023-04-06T09:36:18;9.85;;;6.00;;
25854;SDS011;13680;49.936;11.344;2023-04-06T09:38:54;11.05;;;6.35;;
25854;SDS011;13680;49.936;11.344;2023-04-06T09:41:30;11.70;;;6.75;;
25854;SDS011;13680;49.936;11.344;2023-04-06T09:44:03;9.90;;;6.32;;
25854;SDS011;13680;49.936;11.344;2023-04-06T09:46:34;8.85;;;5.72;;
25854;SDS011;13680;49.936;11.344;2023-04-06T09:49:04;8.80;;;5.88;;
25854;SDS011;13680;49.936;11.344;2023-04-06T09:51:32;11.32;;;5.80;;
25854;SDS011;13680;49.936;11.344;2023-04-06T09:54:06;7.35;;;5.05;;
25854;SDS011;13680;49.936;11.344;2023-04-06T09:56:38;8.93;;;5.38;;
25854;SDS011;13680;49.936;11.344;2023-04-06T09:59:13;8.40;;;5.78;;
25854;SDS011;13680;49.936;11.344;2023-04-06T10:01:44;9.07;;;5.68;;
25854;SDS011;13680;49.936;11.344;2023-04-06T10:06:57;8.60;;;6.32;;
25854;SDS011;13680;49.936;11.344;2023-04-06T10:09:24;15.30;;;10.52;;
25854;SDS011;13680;49.936;11.344;2023-04-06T10:11:53;10.88;;;6.00;;
25854;SDS011;13680;49.936;11.344;2023-04-06T10:14:20;11.45;;;6.30;;
25854;SDS011;13680;49.936;11.344;2023-04-06T10:16:45;11.52;;;7.22;;
25854;SDS011;13680;49.936;11.344;2023-04-06T10:19:13;10.82;;;6.22;;
25854;SDS011;13680;49.936;11.344;2023-04-06T10:21:43;11.68;;;6.03;;
25854;SDS011;13680;49.936;11.344;2023-04-06T10:24:13;11.57;;;6.55;;
25854;SDS011;13680;49.936;11.344;2023-04-06T10:26:39;9.95;;;5.95;;
25854;SDS011;13680;49.936;11.344;2023-04-06T10:29:05;8.90;;;5.13;;
25854;SDS011;13680;49.936;11.344;2023-04-06T10:31:31;8.50;;;5.47;;
25854;SDS011;13680;49.936;11.344;2023-04-06T10:33:57;8.63;;;5.88;;
25854;SDS011;13680;49.936;11.344;2023-04-06T10:36:25;6.63;;;5.18;;
25854;SDS011;13680;49.936;11.344;2023-04-06T10:39:04;8.68;;;5.88;;
25854;SDS011;13680;49.936;11.344;2023-04-06T10:41:31;10.35;;;6.10;;
25854;SDS011;13680;49.936;11.344;2023-04-06T10:43:58;13.25;;;6.13;;
25854;SDS011;13680;49.936;11.344;2023-04-06T10:46:24;7.30;;;5.28;;
25854;SDS011;13680;49.936;11.344;2023-04-06T10:48:51;6.90;;;5.45;;
25854;SDS011;13680;49.936;11.344;2023-04-06T10:51:17;9.45;;;6.25;;
25854;SDS011;13680;49.936;11.344;2023-04-06T10:53:44;7.78;;;5.72;;
25854;SDS011;13680;49.936;11.344;2023-04-06T10:56:15;9.75;;;5.75;;
25854;SDS011;13680;49.936;11.344;2023-04-06T10:58:47;10.35;;;5.72;;
25854;SDS011;13680;49.936;11.344;2023-04-06T11:01:17;11.35;;;6.30;;
25854;SDS011;13680;49.936;11.344;2023-04-06T11:03:45;10.38;;;5.68;;
25854;SDS011;13680;49.936;11.344;2023-04-06T11:06:17;9.18;;;6.05;;
25854;SDS011;13680;49.936;11.344;2023-04-06T11:08:46;8.25;;;6.22;;
25854;SDS011;13680;49.936;11.344;2023-04-06T11:11:13;9.70;;;5.40;;
25854;SDS011;13680;49.936;11.344;2023-04-06T11:16:29;8.00;;;5.50;;
25854;SDS011;13680;49.936;11.344;2023-04-06T11:18:57;8.57;;;6.07;;
25854;SDS011;13680;49.936;11.344;2023-04-06T11:21:41;7.85;;;5.43;;
25854;SDS011;13680;49.936;11.344;2023-04-06T11:24:14;10.93;;;7.50;;
25854;SDS011;13680;49.936;11.344;2023-04-06T11:26:46;10.80;;;5.97;;
25854;SDS011;13680;49.936;11.344;2023-04-06T11:29:14;12.43;;;6.05;;
25854;SDS011;13680;49.936;11.344;2023-04-06T11:31:45;8.80;;;6.72;;
25854;SDS011;13680;49.936;11.344;2023-04-06T11:34:12;8.82;;;6.30;;
25854;SDS011;13680;49.936;11.344;2023-04-06T11:36:41;13.63;;;6.43;;
25854;SDS011;13680;49.936;11.344;2023-04-06T11:39:08;8.15;;;5.97;;
25854;SDS011;13680;49.936;11.344;2023-04-06T11:41:33;11.50;;;6.15;;
25854;SDS011;13680;49.936;11.344;2023-04-06T11:44:00;11.05;;;8.20;;
25854;SDS011;13680;49.936;11.344;2023-04-06T11:46:27;8.30;;;5.60;;
25854;SDS011;13680;49.936;11.344;2023-04-06T11:48:53;7.05;;;5.50;;
25854;SDS011;13680;49.936;11.344;2023-04-06T11:51:23;9.52;;;5.63;;
25854;SDS011;13680;49.936;11.344;2023-04-06T11:53:49;9.15;;;5.63;;
25854;SDS011;13680;49.936;11.344;2023-04-06T11:56:24;7.45;;;4.97;;
25854;SDS011;13680;49.936;11.344;2023-04-06T11:58:56;8.20;;;5.47;;
25854;SDS011;13680;49.936;11.344;2023-04-06T12:01:24;9.85;;;5.20;;
25854;SDS011;13680;49.936;11.344;2023-04-06T12:03:50;9.40;;;5.43;;
25854;SDS011;13680;49.936;11.344;2023-04-06T12:06:16;7.80;;;5.18;;
25854;SDS011;13680;49.936;11.344;2023-04-06T12:08:42;10.05;;;5.40;;
25854;SDS011;13680;49.936;11.344;2023-04-06T12:11:08;8.05;;;5.43;;
25854;SDS011;13680;49.936;11.344;2023-04-06T12:13:33;10.80;;;5.70;;
25854;SDS011;13680;49.936;11.344;2023-04-06T12:15:58;7.78;;;5.25;;
25854;SDS011;13680;49.936;11.344;2023-04-06T12:18:24;8.35;;;5.72;;
25854;SDS011;13680;49.936;11.344;2023-04-06T12:20:50;11.27;;;5.95;;
25854;SDS011;13680;49.936;11.344;2023-04-06T12:23:16;9.73;;;5.43;;
25854;SDS011;13680;49.936;11.344;2023-04-06T12:25:42;10.07;;;5.90;;
25854;SDS011;13680;49.936;11.344;2023-04-06T12:28:07;8.85;;;6.25;;
25854;SDS011;13680;49.936;11.344;2023-04-06T12:30:34;10.23;;;6.00;;
25854;SDS011;13680;49.936;11.344;2023-04-06T12:33:00;9.55;;;6.63;;
25854;SDS011;13680;49.936;11.344;2023-04-06T12:35:25;7.18;;;5.72;;
25854;SDS011;13680;49.936;11.344;2023-04-06T12:37:50;7.32;;;4.63;;
25854;SDS011;13680;49.936;11.344;2023-04-06T12:40:16;6.10;;;5.00;;
25854;SDS011;13680;49.936;11.344;2023-04-06T12:42:41;10.20;;;4.95;;
25854;SDS011;13680;49.936;11.344;2023-04-06T12:45:07;6.47;;;4.72;;
25854;SDS011;13680;49.936;11.344;2023-04-06T12:47:33;10.10;;;5.10;;
25854;SDS011;13680;49.936;11.344;2023-04-06T12:50:00;11.55;;;8.45;;
25854;SDS011;13680;49.936;11.344;2023-04-06T12:52:26;7.43;;;5.53;;
25854;SDS011;13680;49.936;11.344;2023-04-06T12:54:52;7.50;;;5.45;;
25854;SDS011;13680;49.936;11.344;2023-04-06T12:57:17;8.43;;;5.35;;
25854;SDS011;13680;49.936;11.344;2023-04-06T12:59:43;7.57;;;5.40;;
25854;SDS011;13680;49.936;11.344;2023-04-06T13:02:09;7.93;;;5.20;;
25854;SDS011;13680;49.936;11.344;2023-04-06T13:04:35;7.00;;;5.78;;
25854;SDS011;13680;49.936;11.344;2023-04-06T13:07:01;9.05;;;5.90;;
25854;SDS011;13680;49.936;11.344;2023-04-06T13:09:26;14.25;;;12.43;;
25854;SDS011;13680;49.936;11.344;2023-04-06T13:11:51;7.15;;;5.90;;
25854;SDS011;13680;49.936;11.344;2023-04-06T13:14:17;9.38;;;5.85;;
25854;SDS011;13680;49.936;11.344;2023-04-06T13:16:42;8.48;;;5.13;;
25854;SDS011;13680;49.936;11.344;2023-04-06T13:19:08;7.93;;;5.60;;
25854;SDS011;13680;49.936;11.344;2023-04-06T13:21:33;7.35;;;5.07;;
25854;SDS011;13680;49.936;11.344;2023-04-06T13:23:58;7.95;;;5.43;;
25854;SDS011;13680;49.936;11.344;2023-04-06T13:26:24;13.55;;;5.38;;
25854;SDS011;13680;49.936;11.344;2023-04-06T13:28:51;8.75;;;5.28;;
25854;SDS011;13680;49.936;11.344;2023-04-06T13:31:16;8.65;;;5.90;;
25854;SDS011;13680;49.936;11.344;2023-04-06T13:33:41;7.15;;;5.63;;
25854;SDS011;13680;49.936;11.344;2023-04-06T13:36:07;8.98;;;6.38;;
25854;SDS011;13680;49.936;11.344;2023-04-06T13:38:33;8.25;;;5.72;;
25854;SDS011;13680;49.936;11.344;2023-04-06T13:40:58;9.35;;;5.70;;
25854;SDS011;13680;49.936;11.344;2023-04-06T13:43:24;10.07;;;6.10;;
25854;SDS011;13680;49.936;11.344;2023-04-06T13:45:52;7.88;;;6.03;;
25854;SDS011;13680;49.936;11.344;2023-04-06T13:48:23;10.93;;;5.85;;
25854;SDS011;13680;49.936;11.344;2023-04-06T13:50:48;8.27;;;5.32;;
25854;SDS011;13680;49.936;11.344;2023-04-06T13:53:14;10.77;;;5.30;;
25854;SDS011;13680;49.936;11.344;2023-04-06T13:55:39;8.95;;;5.40;;
25854;SDS011;13680;49.936;11.344;2023-04-06T13:58:05;10.88;;;5.57;;
25854;SDS011;13680;49.936;11.344;2023-04-06T14:00:30;6.60;;;4.97;;
25854;SDS011;13680;49.936;11.344;2023-04-06T14:02:55;9.68;;;5.32;;
25854;SDS011;13680;49.936;11.344;2023-04-06T14:05:21;8.65;;;5.47;;
25854;SDS011;13680;49.936;11.344;2023-04-06T14:07:47;10.35;;;5.85;;
25854;SDS011;13680;49.936;11.344;2023-04-06T14:10:12;7.63;;;5.60;;
25854;SDS011;13680;49.936;11.344;2023-04-06T14:12:48;8.55;;;5.45;;
25854;SDS011;13680;49.936;11.344;2023-04-06T14:15:13;7.70;;;5.15;;
25854;SDS011;13680;49.936;11.344;2023-04-06T14:17:38;8.77;;;5.80;;
25854;SDS011;13680;49.936;11.344;2023-04-06T14:20:07;9.20;;;5.75;;
25854;SDS011;13680;49.936;11.344;2023-04-06T14:22:38;8.27;;;5.68;;
25854;SDS011;13680;49.936;11.344;2023-04-06T14:25:04;8.55;;;5.95;;
25854;SDS011;13680;49.936;11.344;2023-04-06T14:27:29;8.75;;;5.65;;
25854;SDS011;13680;49.936;11.344;2023-04-06T14:29:56;9.75;;;5.32;;
25854;SDS011;13680;49.936;11.344;2023-04-06T14:32:21;8.05;;;6.20;;
25854;SDS011;13680;49.936;11.344;2023-04-06T14:34:46;10.45;;;5.50;;